createdAt,value
2023-05-19T00:02:35.146Z,13.44
2023-05-19T00:05:46.310Z,13.43
2023-05-19T00:08:48.842Z,13.36
2023-05-19T00:11:51.616Z,13.38
2023-05-19T00:14:54.444Z,13.33
2023-05-19T00:17:57.140Z,13.35
2023-05-19T00:20:59.752Z,13.35
2023-05-19T00:24:02.162Z,13.35
2023-05-19T00:27:04.919Z,13.38
2023-05-19T00:30:08.666Z,13.33
2023-05-19T00:33:11.134Z,13.23
2023-05-19T00:36:13.741Z,13.17
2023-05-19T00:39:16.388Z,13.19
2023-05-19T00:42:18.958Z,13.17
2023-05-19T00:45:21.427Z,13.20
2023-05-19T00:48:26.257Z,13.13
2023-05-19T00:51:29.759Z,13.12
2023-05-19T00:54:34.714Z,13.05
2023-05-19T00:57:37.809Z,13.12
2023-05-19T01:00:40.766Z,13.08
2023-05-19T01:03:43.321Z,13.07
2023-05-19T01:06:58.089Z,13.05
2023-05-19T01:10:01.062Z,13.07
2023-05-19T01:13:04.492Z,13.09
2023-05-19T01:16:59.369Z,12.93
2023-05-19T01:20:11.088Z,12.88
2023-05-19T01:23:38.678Z,12.88
2023-05-19T01:27:14.129Z,12.91
2023-05-19T01:30:38.226Z,12.97
2023-05-19T01:33:41.477Z,13.01
2023-05-19T01:36:45.002Z,12.91
2023-05-19T01:39:48.581Z,12.98
2023-05-19T01:42:52.782Z,12.87
2023-05-19T01:45:55.764Z,12.86
2023-05-19T01:48:58.322Z,12.88
2023-05-19T01:52:00.892Z,12.94
2023-05-19T01:55:03.259Z,12.84
2023-05-19T01:58:23.548Z,12.86
2023-05-19T02:01:36.046Z,12.74
2023-05-19T02:04:45.208Z,12.67
2023-05-19T02:07:53.082Z,12.59
2023-05-19T02:11:03.364Z,12.74
2023-05-19T02:14:27.043Z,12.83
2023-05-19T02:17:29.697Z,12.82
2023-05-19T02:20:32.559Z,12.80
2023-05-19T02:23:35.421Z,12.83
2023-05-19T02:26:38.080Z,12.77
2023-05-19T02:29:40.527Z,12.85
2023-05-19T02:32:47.021Z,12.86
2023-05-19T02:35:49.665Z,12.78
2023-05-19T02:38:52.455Z,12.73
2023-05-19T02:41:55.103Z,12.67
2023-05-19T02:44:57.556Z,12.45
2023-05-19T02:48:00.123Z,12.58
2023-05-19T02:51:02.539Z,12.56
2023-05-19T02:54:05.325Z,12.60
2023-05-19T02:57:10.290Z,12.70
2023-05-19T03:00:13.291Z,12.73
2023-05-19T03:03:16.123Z,12.70
2023-05-19T03:06:19.001Z,12.76
2023-05-19T03:09:21.598Z,12.69
2023-05-19T03:12:24.716Z,12.74
2023-05-19T03:15:27.353Z,12.75
2023-05-19T03:18:29.968Z,12.77
2023-05-19T03:21:34.734Z,12.86
2023-05-19T03:24:37.348Z,12.90
2023-05-19T03:27:39.898Z,12.77
2023-05-19T03:30:42.423Z,12.70
2023-05-19T03:33:49.622Z,12.83
2023-05-19T03:36:52.016Z,12.86
2023-05-19T03:39:57.557Z,12.87
2023-05-19T03:43:01.159Z,12.99
2023-05-19T03:46:03.820Z,13.08
2023-05-19T03:49:38.466Z,13.19
2023-05-19T03:52:53.748Z,13.09
2023-05-19T03:56:14.109Z,13.08
2023-05-19T03:59:16.858Z,13.13
2023-05-19T04:02:19.462Z,13.02
2023-05-19T04:05:23.725Z,13.15
2023-05-19T04:08:26.322Z,13.06
2023-05-19T04:11:31.104Z,13.19
2023-05-19T04:14:33.980Z,13.22
2023-05-19T04:17:36.461Z,13.31
2023-05-19T04:20:39.527Z,13.36
2023-05-19T04:23:44.317Z,13.43
2023-05-19T04:26:47.439Z,13.43
2023-05-19T04:29:52.989Z,13.44
2023-05-19T04:32:58.208Z,13.55
2023-05-19T04:36:08.572Z,13.50
2023-05-19T04:39:12.407Z,13.62
2023-05-19T04:42:19.520Z,13.67
2023-05-19T04:45:25.918Z,13.82
2023-05-19T04:48:31.101Z,13.98
2023-05-19T04:51:33.529Z,14.11
2023-05-19T04:54:38.636Z,14.21
2023-05-19T04:57:42.449Z,14.23
2023-05-19T05:00:45.556Z,14.40
2023-05-19T05:03:48.164Z,14.28
2023-05-19T05:06:51.497Z,14.26
2023-05-19T05:09:54.732Z,14.56
2023-05-19T05:12:57.741Z,14.63
2023-05-19T05:16:00.817Z,14.67
2023-05-19T05:19:04.462Z,14.64
2023-05-19T05:22:08.672Z,14.65
2023-05-19T05:25:16.365Z,15.01
2023-05-19T05:28:19.379Z,15.11
2023-05-19T05:31:23.054Z,15.29
2023-05-19T05:34:25.845Z,15.28
2023-05-19T05:37:28.398Z,15.29
2023-05-19T05:40:31.213Z,15.36
2023-05-19T05:43:33.688Z,15.23
2023-05-19T05:46:39.177Z,15.23
2023-05-19T05:49:42.271Z,15.19
2023-05-19T05:52:49.364Z,15.24
2023-05-19T05:55:53.680Z,15.53
2023-05-19T05:58:59.191Z,15.54
2023-05-19T06:02:01.979Z,15.83
2023-05-19T06:05:05.935Z,15.75
2023-05-19T06:08:08.857Z,15.97
2023-05-19T06:11:12.181Z,16.07
2023-05-19T06:14:16.379Z,15.96
2023-05-19T06:17:39.423Z,15.88
2023-05-19T06:20:42.375Z,16.00
2023-05-19T06:23:44.923Z,16.15
2023-05-19T06:26:47.950Z,16.49
2023-05-19T06:29:52.305Z,16.74
2023-05-19T06:32:55.667Z,16.84
2023-05-19T06:35:59.492Z,16.82
2023-05-19T06:39:04.086Z,17.01
2023-05-19T06:42:08.073Z,16.81
2023-05-19T06:45:30.869Z,16.95
2023-05-19T06:48:37.474Z,16.99
2023-05-19T06:51:40.322Z,17.20
2023-05-19T06:54:42.885Z,17.21
2023-05-19T06:57:46.631Z,17.58
2023-05-19T07:00:50.761Z,17.20
2023-05-19T07:03:53.752Z,17.53
2023-05-19T07:06:57.643Z,17.71
2023-05-19T07:10:02.546Z,18.09
2023-05-19T07:13:08.366Z,18.17
2023-05-19T07:16:12.345Z,18.24
2023-05-19T07:19:15.329Z,18.18
2023-05-19T07:22:20.879Z,18.01
2023-05-19T07:25:24.011Z,17.93
2023-05-19T07:28:26.616Z,18.00
2023-05-19T07:31:29.470Z,18.24
2023-05-19T07:34:32.238Z,18.49
2023-05-19T07:37:34.879Z,18.53
2023-05-19T07:40:37.443Z,18.71
2023-05-19T07:43:40.181Z,19.02
2023-05-19T07:46:42.887Z,19.30
2023-05-19T07:49:45.755Z,19.55
2023-05-19T07:52:51.820Z,19.58
2023-05-19T07:55:55.871Z,19.90
2023-05-19T07:58:59.523Z,20.04
2023-05-19T08:02:02.110Z,20.00
2023-05-19T08:05:04.994Z,19.45
2023-05-19T08:08:07.566Z,19.07
2023-05-19T08:11:10.525Z,18.71
2023-05-19T08:14:14.580Z,19.58
2023-05-19T08:17:17.311Z,19.69
2023-05-19T08:20:20.575Z,19.92
2023-05-19T08:23:23.519Z,19.89
2023-05-19T08:26:26.483Z,20.09
2023-05-19T08:29:33.798Z,20.25
2023-05-19T08:32:39.138Z,20.68
2023-05-19T08:35:41.596Z,21.15
2023-05-19T08:38:44.233Z,21.35
2023-05-19T08:41:47.657Z,21.77
2023-05-19T08:44:50.423Z,22.03
2023-05-19T08:47:52.983Z,22.18
2023-05-19T08:51:22.345Z,22.40
2023-05-19T08:54:26.734Z,22.55
2023-05-19T08:57:29.378Z,22.89
2023-05-19T09:00:32.582Z,22.91
2023-05-19T09:03:42.455Z,22.47
2023-05-19T09:06:45.709Z,22.81
2023-05-19T09:09:48.498Z,23.47
2023-05-19T09:12:52.293Z,24.14
2023-05-19T09:15:54.856Z,24.41
2023-05-19T09:18:57.801Z,24.84
2023-05-19T09:22:03.965Z,25.30
2023-05-19T09:25:06.760Z,25.40
2023-05-19T09:28:10.581Z,25.82
2023-05-19T09:31:15.134Z,25.74
2023-05-19T09:34:17.832Z,25.77
2023-05-19T09:37:24.238Z,25.35
2023-05-19T09:40:28.473Z,25.72
2023-05-19T09:43:32.877Z,25.97
2023-05-19T09:46:36.763Z,26.30
2023-05-19T09:49:40.085Z,25.62
2023-05-19T09:52:45.688Z,25.70
2023-05-19T09:55:48.767Z,25.93
2023-05-19T09:58:51.813Z,25.19
2023-05-19T10:01:58.856Z,25.63
2023-05-19T10:05:01.698Z,26.05
2023-05-19T10:08:07.437Z,26.42
2023-05-19T10:11:10.606Z,26.85
2023-05-19T10:14:13.374Z,27.34
2023-05-19T10:17:16.475Z,27.46
2023-05-19T10:20:24.939Z,27.67
2023-05-19T10:23:30.984Z,27.59
2023-05-19T10:26:33.997Z,27.62
2023-05-19T10:29:38.348Z,27.81
2023-05-19T10:32:44.894Z,27.69
2023-05-19T10:35:57.404Z,28.19
2023-05-19T10:39:08.167Z,28.41
2023-05-19T10:42:19.645Z,28.27
2023-05-19T10:45:26.047Z,28.58
2023-05-19T10:48:28.957Z,28.91
2023-05-19T10:51:32.570Z,28.13
2023-05-19T10:54:41.362Z,26.82
2023-05-19T10:57:59.142Z,25.58
2023-05-19T11:01:02.420Z,25.20
2023-05-19T11:04:14.207Z,25.34
2023-05-19T11:07:21.221Z,26.96
2023-05-19T11:10:24.351Z,28.01
2023-05-19T11:13:28.474Z,26.64
2023-05-19T11:16:33.994Z,26.84
2023-05-19T11:19:37.664Z,28.72
2023-05-19T11:22:42.749Z,28.82
2023-05-19T11:25:49.663Z,27.51
2023-05-19T11:28:52.260Z,27.48
2023-05-19T11:31:54.742Z,28.24
2023-05-19T11:34:58.195Z,29.28
2023-05-19T11:38:00.820Z,29.32
2023-05-19T11:41:03.628Z,30.44
2023-05-19T11:44:13.237Z,31.06
2023-05-19T11:47:17.130Z,31.54
2023-05-19T11:50:21.044Z,30.41
2023-05-19T11:53:23.515Z,28.25
2023-05-19T11:56:26.431Z,28.50
2023-05-19T11:59:35.996Z,30.27
2023-05-19T12:02:39.086Z,31.51
2023-05-19T12:05:47.852Z,32.18
2023-05-19T12:08:52.063Z,32.53
2023-05-19T12:11:55.081Z,33.07
2023-05-19T12:14:58.355Z,33.48
2023-05-19T12:18:01.823Z,33.14
2023-05-19T12:21:05.270Z,33.86
2023-05-19T12:24:07.943Z,34.50
2023-05-19T12:27:11.381Z,34.13
2023-05-19T12:30:14.056Z,32.10
2023-05-19T12:33:16.764Z,31.53
2023-05-19T12:36:19.622Z,28.98
2023-05-19T12:39:23.363Z,28.50
2023-05-19T12:42:32.461Z,27.40
2023-05-19T12:45:36.232Z,28.43
2023-05-19T12:48:44.031Z,27.14
2023-05-19T12:51:55.674Z,29.86
2023-05-19T12:55:08.446Z,32.00
2023-05-19T12:58:12.040Z,33.01
2023-05-19T13:01:18.266Z,33.47
2023-05-19T13:04:20.906Z,33.73
2023-05-19T13:07:24.310Z,33.89
2023-05-19T13:10:27.786Z,34.05
2023-05-19T13:13:30.442Z,32.84
2023-05-19T13:16:33.078Z,33.63
2023-05-19T13:19:35.714Z,31.02
2023-05-19T13:22:38.657Z,32.52
2023-05-19T13:25:41.662Z,33.16
2023-05-19T13:28:44.117Z,33.58
2023-05-19T13:31:47.107Z,33.68
2023-05-19T13:34:50.243Z,32.27
2023-05-19T13:37:52.741Z,30.05
2023-05-19T13:40:55.226Z,28.25
2023-05-19T13:43:59.293Z,27.43
2023-05-19T13:47:01.866Z,29.69
2023-05-19T13:50:04.973Z,28.96
2023-05-19T13:53:08.402Z,27.87
2023-05-19T13:56:11.180Z,27.35
2023-05-19T13:59:13.666Z,29.17
2023-05-19T14:02:18.390Z,30.65
2023-05-19T14:05:22.476Z,31.30
2023-05-19T14:08:25.019Z,31.82
2023-05-19T14:11:27.634Z,30.70
2023-05-19T14:14:30.050Z,31.60
2023-05-19T14:17:32.824Z,31.99
2023-05-19T14:20:36.100Z,31.98
2023-05-19T14:23:38.993Z,32.24
2023-05-19T14:26:41.925Z,32.41
2023-05-19T14:29:44.449Z,30.46
2023-05-19T14:32:47.016Z,29.16
2023-05-19T14:35:50.091Z,28.70
2023-05-19T14:38:52.729Z,29.97
2023-05-19T14:41:56.382Z,31.16
2023-05-19T14:44:59.082Z,29.84
2023-05-19T14:48:01.917Z,31.44
2023-05-19T14:51:05.028Z,31.76
2023-05-19T14:54:08.267Z,31.78
2023-05-19T14:57:11.021Z,30.93
2023-05-19T15:00:17.799Z,30.96
2023-05-19T15:03:37.202Z,29.07
2023-05-19T15:06:42.325Z,28.22
2023-05-19T15:09:57.217Z,27.53
2023-05-19T15:13:24.927Z,26.68
2023-05-19T15:16:47.397Z,26.70
2023-05-19T15:19:49.842Z,26.19
2023-05-19T15:22:52.311Z,26.00
2023-05-19T15:25:55.643Z,26.09
2023-05-19T15:28:58.174Z,26.08
2023-05-19T15:32:01.126Z,25.99
2023-05-19T15:35:03.852Z,25.95
2023-05-19T15:38:07.000Z,26.66
2023-05-19T15:41:10.152Z,28.04
2023-05-19T15:44:12.925Z,28.47
2023-05-19T15:47:15.789Z,28.79
2023-05-19T15:50:18.456Z,28.39
2023-05-19T15:53:21.112Z,27.62
2023-05-19T15:56:26.108Z,27.17
2023-05-19T15:59:28.600Z,26.95
2023-05-19T16:02:32.364Z,26.55
2023-05-19T16:05:35.232Z,26.41
2023-05-19T16:08:38.422Z,25.95
2023-05-19T16:11:41.082Z,25.77
2023-05-19T16:14:43.744Z,25.84
2023-05-19T16:17:46.417Z,25.73
2023-05-19T16:20:51.345Z,26.00
2023-05-19T16:23:55.471Z,26.31
2023-05-19T16:26:58.068Z,26.39
2023-05-19T16:30:01.254Z,26.15
2023-05-19T16:33:04.462Z,26.22
2023-05-19T16:36:07.085Z,25.58
2023-05-19T16:39:09.813Z,25.23
2023-05-19T16:42:12.690Z,24.84
2023-05-19T16:45:18.090Z,24.41
2023-05-19T16:48:20.864Z,24.08
2023-05-19T16:51:23.418Z,23.86
2023-05-19T16:54:26.128Z,23.61
2023-05-19T16:57:29.019Z,23.52
2023-05-19T17:00:31.891Z,23.45
2023-05-19T17:03:35.907Z,23.38
2023-05-19T17:06:38.375Z,23.27
2023-05-19T17:09:40.926Z,22.96
2023-05-19T17:12:43.253Z,22.73
2023-05-19T17:15:45.659Z,22.70
2023-05-19T17:18:48.303Z,22.33
2023-05-19T17:21:51.761Z,22.24
2023-05-19T17:24:54.303Z,22.23
2023-05-19T17:27:57.348Z,21.96
2023-05-19T17:31:00.124Z,21.87
2023-05-19T17:34:02.697Z,21.82
2023-05-19T17:37:05.279Z,21.63
2023-05-19T17:40:08.341Z,21.61
2023-05-19T17:43:11.111Z,21.46
2023-05-19T17:46:13.739Z,21.23
2023-05-19T17:49:16.260Z,21.19
2023-05-19T17:52:22.377Z,21.07
2023-05-19T17:55:29.923Z,20.97
2023-05-19T17:58:32.862Z,20.88
2023-05-19T18:01:37.112Z,20.72
2023-05-19T18:04:40.116Z,20.61
2023-05-19T18:07:42.839Z,20.51
2023-05-19T18:10:46.257Z,20.41
2023-05-19T18:13:49.073Z,20.17
2023-05-19T18:16:51.683Z,20.08
2023-05-19T18:19:54.783Z,19.94
2023-05-19T18:22:57.826Z,19.82
2023-05-19T18:26:00.623Z,19.63
2023-05-19T18:29:04.971Z,19.53
2023-05-19T18:32:07.909Z,19.38
2023-05-19T18:35:10.823Z,19.21
2023-05-19T18:38:13.256Z,19.12
2023-05-19T18:41:16.459Z,19.02
2023-05-19T18:44:18.988Z,18.88
2023-05-19T18:47:23.107Z,18.73
2023-05-19T18:50:25.802Z,18.59
2023-05-19T18:53:28.375Z,18.56
2023-05-19T18:56:33.547Z,18.49
2023-05-19T18:59:36.464Z,18.38
2023-05-19T19:02:39.066Z,18.35
2023-05-19T19:05:41.496Z,18.32
2023-05-19T19:08:44.479Z,18.24
2023-05-19T19:11:46.959Z,18.19
2023-05-19T19:14:49.411Z,18.15
2023-05-19T19:17:52.207Z,18.09
2023-05-19T19:20:56.790Z,18.02
2023-05-19T19:23:59.365Z,18.01
2023-05-19T19:27:01.907Z,18.01
2023-05-19T19:30:04.761Z,17.96
2023-05-19T19:33:07.268Z,17.99
2023-05-19T19:36:11.400Z,17.90
2023-05-19T19:39:14.356Z,17.93
2023-05-19T19:42:18.876Z,17.91
2023-05-19T19:45:21.470Z,17.88
2023-05-19T19:48:24.006Z,17.91
2023-05-19T19:51:27.404Z,17.93
2023-05-19T19:54:30.094Z,17.87
2023-05-19T19:57:34.366Z,17.93
2023-05-19T20:00:37.273Z,17.94
2023-05-19T20:03:39.908Z,17.92
2023-05-19T20:06:42.331Z,17.98
2023-05-19T20:09:45.427Z,17.98
2023-05-19T20:12:48.025Z,18.01
2023-05-19T20:16:03.771Z,18.10
2023-05-19T20:19:07.805Z,18.07
2023-05-19T20:22:11.885Z,17.99
2023-05-19T20:25:14.855Z,17.90
2023-05-19T20:28:17.218Z,17.97
2023-05-19T20:31:21.568Z,17.91
2023-05-19T20:34:24.181Z,17.97
2023-05-19T20:37:26.792Z,17.93
2023-05-19T20:40:30.329Z,18.05
2023-05-19T20:43:36.183Z,18.08
2023-05-19T20:46:38.754Z,18.05
2023-05-19T20:49:41.353Z,17.96
2023-05-19T20:52:45.866Z,18.00
2023-05-19T20:55:48.824Z,18.09
2023-05-19T20:58:51.368Z,18.07
2023-05-19T21:01:53.890Z,18.04
2023-05-19T21:04:56.694Z,18.06
2023-05-19T21:07:59.240Z,18.05
2023-05-19T21:11:01.676Z,17.94
2023-05-19T21:14:04.361Z,17.84
2023-05-19T21:17:08.418Z,17.78
2023-05-19T21:20:11.424Z,17.80
2023-05-19T21:23:13.885Z,17.86
2023-05-19T21:26:16.596Z,17.73
2023-05-19T21:29:19.267Z,17.67
2023-05-19T21:32:21.843Z,17.60
2023-05-19T21:35:24.451Z,17.56
2023-05-19T21:38:27.329Z,17.56
2023-05-19T21:41:31.210Z,17.50
2023-05-19T21:44:33.838Z,17.51
2023-05-19T21:47:36.513Z,17.53
2023-05-19T21:50:39.225Z,17.52
2023-05-19T21:53:41.890Z,17.47
2023-05-19T21:56:44.380Z,17.35
2023-05-19T21:59:46.887Z,17.30
2023-05-19T22:02:49.736Z,17.26
2023-05-19T22:05:53.118Z,17.29
2023-05-19T22:08:55.651Z,17.24
2023-05-19T22:11:58.219Z,17.10
2023-05-19T22:15:00.924Z,17.10
2023-05-19T22:18:03.426Z,17.11
2023-05-19T22:21:06.425Z,17.09
2023-05-19T22:24:08.884Z,17.05
2023-05-19T22:27:11.774Z,17.18
2023-05-19T22:30:14.247Z,17.25
2023-05-19T22:33:16.821Z,17.21
2023-05-19T22:36:19.335Z,17.19
2023-05-19T22:39:22.205Z,17.06
2023-05-19T22:42:24.683Z,17.10
2023-05-19T22:45:27.252Z,17.08
2023-05-19T22:48:29.910Z,17.02
2023-05-19T22:51:33.577Z,17.12
2023-05-19T22:54:36.372Z,17.06
2023-05-19T22:57:39.027Z,17.07
2023-05-19T23:00:41.502Z,17.01
2023-05-19T23:03:44.825Z,16.95
2023-05-19T23:06:47.965Z,16.90
2023-05-19T23:09:50.553Z,16.83
2023-05-19T23:12:53.159Z,16.89
2023-05-19T23:15:55.941Z,16.86
2023-05-19T23:18:58.356Z,16.78
2023-05-19T23:22:01.150Z,16.69
2023-05-19T23:25:07.693Z,16.53
2023-05-19T23:28:11.369Z,16.42
2023-05-19T23:31:14.220Z,16.30
2023-05-19T23:34:16.697Z,16.21
2023-05-19T23:37:20.443Z,16.20
2023-05-19T23:40:22.928Z,16.13
2023-05-19T23:43:25.453Z,16.07
2023-05-19T23:46:28.100Z,16.04
2023-05-19T23:49:30.647Z,16.06
2023-05-19T23:52:33.203Z,15.99
2023-05-19T23:55:35.906Z,16.02
2023-05-19T23:58:38.677Z,16.02
